createdAt,value
2022-08-07T00:00:56.804Z,0.30
2022-08-07T00:03:36.735Z,0.20
2022-08-07T00:06:02.261Z,0.20
2022-08-07T00:08:32.942Z,0.30
2022-08-07T00:11:03.221Z,0.30
2022-08-07T00:13:35.549Z,0.35
2022-08-07T00:16:07.567Z,0.40
2022-08-07T00:18:37.415Z,0.30
2022-08-07T00:21:57.260Z,0.30
2022-08-07T00:23:42.292Z,0.30
2022-08-07T00:26:18.588Z,0.30
2022-08-07T00:28:56.774Z,0.30
2022-08-07T00:31:37.558Z,0.20
2022-08-07T00:34:08.949Z,0.20
2022-08-07T00:36:42.745Z,0.20
2022-08-07T00:39:12.886Z,0.20
2022-08-07T00:41:45.371Z,0.40
2022-08-07T00:44:15.145Z,0.27
2022-08-07T00:46:45.110Z,0.30
2022-08-07T00:49:24.950Z,0.20
2022-08-07T00:54:22.503Z,0.20
2022-08-07T00:56:52.476Z,0.20
2022-08-07T01:02:13.966Z,0.40
2022-08-07T01:04:47.414Z,0.20
2022-08-07T01:07:18.223Z,0.20
2022-08-07T01:10:05.812Z,0.30
2022-08-07T01:12:29.894Z,0.20
2022-08-07T01:14:51.096Z,0.30
2022-08-07T01:17:22.549Z,0.23
2022-08-07T01:19:54.473Z,0.20
2022-08-07T01:22:29.493Z,0.30
2022-08-07T01:24:55.740Z,0.20
2022-08-07T01:27:31.984Z,0.13
2022-08-07T01:29:56.997Z,0.23
2022-08-07T01:32:27.068Z,0.28
2022-08-07T01:34:57.235Z,0.17
2022-08-07T01:37:27.263Z,0.30
2022-08-07T01:40:00.024Z,0.20
2022-08-07T01:42:37.844Z,0.20
2022-08-07T01:45:03.340Z,0.20
2022-08-07T01:48:19.604Z,0.20
2022-08-07T01:50:11.276Z,0.13
2022-08-07T01:52:49.601Z,0.30
2022-08-07T01:55:21.996Z,0.20
2022-08-07T01:58:06.136Z,0.10
2022-08-07T02:00:18.843Z,0.20
2022-08-07T02:03:19.274Z,0.20
2022-08-07T02:05:43.344Z,0.20
2022-08-07T02:08:14.021Z,0.20
2022-08-07T02:10:45.076Z,0.20
2022-08-07T02:13:19.583Z,0.20
2022-08-07T02:15:51.012Z,0.20
2022-08-07T02:18:25.917Z,0.10
2022-08-07T02:20:57.433Z,0.10
2022-08-07T02:23:30.206Z,0.10
2022-08-07T02:26:31.267Z,0.15
2022-08-07T02:28:48.345Z,0.10
2022-08-07T02:31:28.871Z,0.10
2022-08-07T02:34:01.936Z,0.17
2022-08-07T02:36:33.049Z,0.33
2022-08-07T02:39:16.022Z,0.10
2022-08-07T02:41:37.106Z,0.18
2022-08-07T02:44:09.180Z,0.17
2022-08-07T02:46:46.738Z,0.20
2022-08-07T02:49:28.861Z,0.20
2022-08-07T02:51:52.175Z,0.20
2022-08-07T02:54:22.008Z,0.10
2022-08-07T02:56:53.583Z,0.10
2022-08-07T02:59:27.927Z,0.10
2022-08-07T03:02:02.534Z,0.10
2022-08-07T03:04:32.906Z,0.25
2022-08-07T03:07:10.476Z,0.10
2022-08-07T03:09:43.495Z,0.20
2022-08-07T03:12:22.357Z,0.20
2022-08-07T03:14:52.607Z,0.20
2022-08-07T03:17:24.205Z,0.20
2022-08-07T03:19:54.966Z,0.10
2022-08-07T03:22:29.404Z,0.10
2022-08-07T03:24:57.499Z,0.20
2022-08-07T03:27:30.694Z,0.20
2022-08-07T03:30:03.789Z,0.30
2022-08-07T03:32:37.523Z,0.30
2022-08-07T03:35:17.650Z,0.40
2022-08-07T03:37:53.777Z,0.40
2022-08-07T03:40:18.467Z,0.30
2022-08-07T03:42:54.932Z,0.30
2022-08-07T03:45:30.804Z,0.30
2022-08-07T03:48:01.959Z,0.35
2022-08-07T03:50:43.267Z,0.40
2022-08-07T03:53:12.413Z,0.45
2022-08-07T03:55:58.109Z,0.40
2022-08-07T03:58:33.238Z,0.30
2022-08-07T04:00:53.299Z,0.30
2022-08-07T04:03:26.451Z,0.50
2022-08-07T04:05:58.717Z,0.20
2022-08-07T04:08:35.064Z,0.35
2022-08-07T04:12:15.707Z,0.30
2022-08-07T04:14:10.430Z,0.30
2022-08-07T04:16:14.995Z,0.45
2022-08-07T04:18:59.573Z,0.30
2022-08-07T04:21:16.930Z,0.40
2022-08-07T04:24:03.736Z,0.20
2022-08-07T04:26:22.950Z,0.30
2022-08-07T04:28:54.564Z,0.30
2022-08-07T04:32:02.125Z,0.40
2022-08-07T04:33:58.859Z,0.30
2022-08-07T04:36:28.702Z,0.30
2022-08-07T04:38:59.408Z,0.30
2022-08-07T04:41:30.668Z,0.30
2022-08-07T04:44:13.172Z,0.27
2022-08-07T04:46:59.639Z,0.40
2022-08-07T04:49:29.287Z,0.35
2022-08-07T04:52:08.967Z,0.20
2022-08-07T04:54:53.981Z,0.30
2022-08-07T05:00:18.782Z,0.30
2022-08-07T05:02:54.395Z,0.40
2022-08-07T05:05:53.027Z,0.42
2022-08-07T05:08:07.142Z,0.38
2022-08-07T05:10:44.283Z,0.40
2022-08-07T05:14:55.125Z,0.40
2022-08-07T05:16:11.250Z,0.30
2022-08-07T05:18:53.462Z,0.40
2022-08-07T05:21:59.781Z,0.40
2022-08-07T05:24:12.121Z,0.40
2022-08-07T05:26:41.901Z,0.37
2022-08-07T05:29:16.892Z,0.50
2022-08-07T05:31:47.459Z,0.40
2022-08-07T05:34:21.290Z,0.33
2022-08-07T05:36:56.218Z,0.50
2022-08-07T05:40:16.880Z,0.40
2022-08-07T05:42:00.499Z,0.45
2022-08-07T05:44:29.375Z,0.37
2022-08-07T05:47:00.347Z,0.60
2022-08-07T05:49:40.841Z,0.45
2022-08-07T05:52:03.206Z,0.47
2022-08-07T05:54:53.853Z,0.40
2022-08-07T05:57:06.354Z,0.45
2022-08-07T05:59:55.767Z,0.40
2022-08-07T06:02:22.597Z,0.40
2022-08-07T06:04:51.359Z,0.40
2022-08-07T06:07:23.036Z,0.40
2022-08-07T06:10:05.792Z,0.37
2022-08-07T06:12:31.917Z,0.30
2022-08-07T06:14:58.700Z,0.50
2022-08-07T06:17:31.904Z,0.30
2022-08-07T06:20:04.010Z,0.40
2022-08-07T06:22:31.729Z,0.37
2022-08-07T06:25:03.029Z,0.50
2022-08-07T06:28:00.434Z,0.30
2022-08-07T06:30:04.985Z,0.30
2022-08-07T06:32:34.942Z,0.40
2022-08-07T06:35:17.841Z,0.30
2022-08-07T06:37:43.846Z,0.30
2022-08-07T06:42:41.670Z,0.23
2022-08-07T06:45:17.971Z,0.28
2022-08-07T06:47:48.177Z,0.40
2022-08-07T06:50:16.486Z,0.40
2022-08-07T06:52:52.965Z,0.27
2022-08-07T06:56:00.153Z,0.30
2022-08-07T06:58:04.537Z,0.40
2022-08-07T07:00:38.189Z,0.35
2022-08-07T07:03:10.794Z,0.30
2022-08-07T07:06:02.384Z,0.30
2022-08-07T07:08:18.277Z,0.30
2022-08-07T07:10:47.639Z,0.25
2022-08-07T07:13:55.743Z,0.30
2022-08-07T07:15:51.955Z,0.23
2022-08-07T07:18:33.097Z,0.30
2022-08-07T07:21:13.437Z,0.20
2022-08-07T07:24:09.725Z,0.30
2022-08-07T07:26:31.382Z,0.20
2022-08-07T07:29:40.657Z,0.20
2022-08-07T07:31:39.778Z,0.20
2022-08-07T07:34:10.487Z,0.30
2022-08-07T07:36:41.976Z,0.20
2022-08-07T07:39:13.610Z,0.20
2022-08-07T07:42:02.268Z,0.30
2022-08-07T07:44:21.411Z,0.17
2022-08-07T07:46:54.694Z,0.20
2022-08-07T07:50:33.456Z,0.20
2022-08-07T07:51:57.558Z,0.20
2022-08-07T07:54:21.736Z,0.30
2022-08-07T07:56:53.263Z,0.30
2022-08-07T07:59:24.607Z,0.17
2022-08-07T08:02:01.929Z,0.10
2022-08-07T08:04:27.896Z,0.20
2022-08-07T08:07:00.642Z,0.20
2022-08-07T08:09:29.125Z,0.23
2022-08-07T08:12:02.809Z,0.20
2022-08-07T08:14:36.484Z,0.20
2022-08-07T08:17:55.980Z,0.20
2022-08-07T08:20:17.445Z,0.20
2022-08-07T08:22:32.621Z,0.33
2022-08-07T08:25:42.018Z,0.20
2022-08-07T08:27:57.186Z,0.20
2022-08-07T08:30:24.361Z,0.20
2022-08-07T08:32:58.607Z,0.20
2022-08-07T08:35:39.051Z,0.10
2022-08-07T08:38:04.764Z,0.10
2022-08-07T08:43:13.097Z,0.20
2022-08-07T08:46:00.654Z,0.20
2022-08-07T08:48:35.930Z,0.20
2022-08-07T08:52:12.426Z,0.20
2022-08-07T08:54:19.985Z,0.30
2022-08-07T08:56:50.377Z,0.20
2022-08-07T08:59:26.359Z,0.20
2022-08-07T09:02:13.927Z,0.20
2022-08-07T09:05:02.134Z,0.20
2022-08-07T09:07:58.188Z,0.20
2022-08-07T09:10:49.813Z,0.20
2022-08-07T09:13:36.941Z,0.15
2022-08-07T09:16:26.642Z,0.20
2022-08-07T09:19:03.630Z,0.20
2022-08-07T09:24:29.017Z,0.20
2022-08-07T09:24:59.165Z,0.20
2022-08-07T09:28:00.624Z,0.20
2022-08-07T09:30:16.385Z,0.20
2022-08-07T09:33:05.262Z,0.20
2022-08-07T09:36:01.031Z,0.23
2022-08-07T09:38:57.755Z,0.20
2022-08-07T09:41:58.465Z,0.10
2022-08-07T09:44:32.659Z,0.20
2022-08-07T09:47:50.720Z,0.20
2022-08-07T09:50:02.932Z,0.20
2022-08-07T09:52:33.369Z,0.15
2022-08-07T09:54:51.706Z,0.20
2022-08-07T09:57:46.672Z,0.20
2022-08-07T10:00:18.857Z,0.30
2022-08-07T10:04:06.192Z,0.20
2022-08-07T10:06:01.214Z,0.23
2022-08-07T10:08:46.209Z,0.20
2022-08-07T10:12:01.635Z,0.20
2022-08-07T10:14:40.146Z,0.20
2022-08-07T10:18:02.955Z,0.20
2022-08-07T10:20:30.284Z,0.30
2022-08-07T10:23:07.653Z,0.20
2022-08-07T10:25:46.399Z,0.20
2022-08-07T10:28:35.370Z,0.20
2022-08-07T10:31:45.295Z,0.20
2022-08-07T10:34:38.166Z,0.20
2022-08-07T10:37:48.876Z,0.20
2022-08-07T10:40:14.701Z,0.33
2022-08-07T10:42:56.064Z,0.20
2022-08-07T10:45:57.630Z,0.30
2022-08-07T10:48:34.738Z,0.20
2022-08-07T10:51:16.637Z,0.30
2022-08-07T10:54:21.890Z,0.20
2022-08-07T10:57:34.684Z,0.20
2022-08-07T11:00:09.069Z,0.30
2022-08-07T11:03:01.496Z,0.20
2022-08-07T11:06:05.057Z,0.20
2022-08-07T11:08:47.446Z,0.20
2022-08-07T11:11:37.571Z,0.20
2022-08-07T11:14:46.081Z,0.20
2022-08-07T11:17:09.102Z,0.20
2022-08-07T11:19:50.453Z,0.30
2022-08-07T11:22:36.072Z,0.30
2022-08-07T11:25:08.996Z,0.30
2022-08-07T11:28:02.554Z,0.20
2022-08-07T11:30:41.509Z,0.20
2022-08-07T11:33:14.252Z,0.30
2022-08-07T11:35:59.504Z,0.20
2022-08-07T11:38:31.262Z,0.30
2022-08-07T11:41:08.037Z,0.30
2022-08-07T11:44:10.658Z,0.37
2022-08-07T11:46:39.831Z,0.30
2022-08-07T11:49:51.228Z,0.30
2022-08-07T11:52:28.981Z,0.30
2022-08-07T11:55:18.899Z,0.30
2022-08-07T11:58:00.166Z,0.30
2022-08-07T12:00:28.553Z,0.33
2022-08-07T12:03:45.104Z,0.23
2022-08-07T12:06:39.808Z,0.23
2022-08-07T12:09:02.199Z,0.25
2022-08-07T12:11:43.286Z,0.30
2022-08-07T12:14:25.798Z,0.33
2022-08-07T12:17:04.318Z,0.40
2022-08-07T12:20:09.496Z,0.30
2022-08-07T12:22:56.392Z,0.30
2022-08-07T12:26:21.360Z,0.23
2022-08-07T12:28:49.590Z,0.40
2022-08-07T12:31:26.240Z,0.40
2022-08-07T12:34:01.971Z,0.30
2022-08-07T12:36:33.102Z,0.30
2022-08-07T12:39:09.447Z,0.30
2022-08-07T12:41:42.869Z,0.40
2022-08-07T12:44:13.317Z,0.40
2022-08-07T12:46:50.957Z,0.30
2022-08-07T12:49:48.567Z,0.20
2022-08-07T12:52:18.185Z,0.20
2022-08-07T12:55:17.703Z,0.30
2022-08-07T12:58:02.068Z,0.30
2022-08-07T13:00:31.062Z,0.30
2022-08-07T13:03:08.827Z,0.40
2022-08-07T13:06:02.071Z,0.23
2022-08-07T13:08:39.388Z,0.30
2022-08-07T13:12:02.213Z,0.30
2022-08-07T13:14:32.828Z,0.30
2022-08-07T13:17:07.942Z,0.30
2022-08-07T13:19:51.538Z,0.40
2022-08-07T13:22:35.772Z,0.30
2022-08-07T13:25:08.303Z,0.37
2022-08-07T13:28:11.161Z,0.30
2022-08-07T13:30:43.480Z,0.30
2022-08-07T13:33:46.032Z,0.20
2022-08-07T13:36:00.765Z,0.30
2022-08-07T13:38:43.839Z,0.30
2022-08-07T13:41:33.366Z,0.30
2022-08-07T13:44:10.626Z,0.30
2022-08-07T13:46:49.712Z,0.20
2022-08-07T13:52:25.943Z,0.30
2022-08-07T14:00:26.802Z,0.30
2022-08-07T14:03:01.638Z,0.30
2022-08-07T14:05:38.546Z,0.32
2022-08-07T14:08:10.815Z,0.40
2022-08-07T14:10:43.739Z,0.30
2022-08-07T14:13:18.098Z,0.20
2022-08-07T14:15:56.874Z,0.30
2022-08-07T14:18:37.469Z,0.30
2022-08-07T14:21:21.149Z,0.20
2022-08-07T14:24:02.259Z,0.20
2022-08-07T14:26:58.062Z,0.20
2022-08-07T14:30:09.413Z,0.20
2022-08-07T14:32:08.313Z,0.20
2022-08-07T14:34:46.073Z,0.20
2022-08-07T14:37:16.415Z,0.20
2022-08-07T14:40:18.148Z,0.30
2022-08-07T14:42:22.492Z,0.20
2022-08-07T14:44:59.523Z,0.20
2022-08-07T14:47:32.842Z,0.20
2022-08-07T14:52:39.949Z,0.28
2022-08-07T14:55:11.727Z,0.20
2022-08-07T14:57:58.477Z,0.20
2022-08-07T15:00:29.845Z,0.20
2022-08-07T15:02:57.003Z,0.27
2022-08-07T15:05:26.089Z,0.30
2022-08-07T15:07:56.407Z,0.55
2022-08-07T15:10:29.898Z,0.70
2022-08-07T15:13:11.703Z,0.93
2022-08-07T15:15:52.215Z,0.70
2022-08-07T15:18:33.986Z,0.40
2022-08-07T15:20:55.597Z,0.70
2022-08-07T15:26:04.228Z,0.70
2022-08-07T15:31:12.289Z,0.80
2022-08-07T15:33:43.783Z,0.87
2022-08-07T15:36:13.807Z,0.80
2022-08-07T15:41:23.748Z,0.80
2022-08-07T15:44:03.231Z,0.60
2022-08-07T15:46:45.900Z,0.55
2022-08-07T15:49:13.056Z,0.60
2022-08-07T15:54:12.367Z,0.67
2022-08-07T15:56:42.500Z,0.62
2022-08-07T15:59:17.237Z,0.40
2022-08-07T16:02:01.978Z,0.45
2022-08-07T16:04:26.056Z,0.50
2022-08-07T16:06:57.746Z,0.47
2022-08-07T16:09:48.477Z,0.35
2022-08-07T16:12:29.227Z,0.40
2022-08-07T16:15:04.570Z,0.40
2022-08-07T16:18:01.890Z,0.30
2022-08-07T16:20:56.767Z,0.40
2022-08-07T16:23:53.596Z,0.40
2022-08-07T16:26:30.439Z,0.40
2022-08-07T16:29:18.719Z,0.30
2022-08-07T16:32:06.769Z,0.45
2022-08-07T16:35:01.484Z,0.40
2022-08-07T16:38:05.230Z,0.40
2022-08-07T16:41:01.726Z,0.40
2022-08-07T16:44:02.484Z,0.40
2022-08-07T16:47:04.833Z,0.37
2022-08-07T16:50:27.540Z,0.20
2022-08-07T16:52:49.270Z,0.30
2022-08-07T16:55:17.467Z,0.30
2022-08-07T16:58:08.319Z,0.30
2022-08-07T17:00:43.031Z,0.30
2022-08-07T17:03:17.388Z,0.20
2022-08-07T17:06:28.213Z,0.28
2022-08-07T17:09:09.605Z,0.40
2022-08-07T17:11:18.572Z,0.30
2022-08-07T17:14:19.091Z,0.30
2022-08-07T17:16:58.528Z,0.20
2022-08-07T17:20:03.197Z,0.20
2022-08-07T17:22:16.911Z,0.20
2022-08-07T17:25:18.514Z,0.30
2022-08-07T17:28:19.781Z,0.20
2022-08-07T17:31:15.941Z,0.20
2022-08-07T17:34:17.914Z,0.30
2022-08-07T17:36:20.364Z,0.30
2022-08-07T17:39:15.424Z,0.25
2022-08-07T17:42:01.979Z,0.20
2022-08-07T17:44:34.164Z,0.20
2022-08-07T17:47:16.986Z,0.20
2022-08-07T17:50:03.602Z,0.20
2022-08-07T17:52:42.933Z,0.20
2022-08-07T17:56:01.172Z,0.20
2022-08-07T17:58:01.427Z,0.10
2022-08-07T18:00:34.712Z,0.20
2022-08-07T18:03:09.341Z,0.20
2022-08-07T18:06:03.058Z,0.20
2022-08-07T18:08:26.146Z,0.17
2022-08-07T18:12:07.517Z,0.20
2022-08-07T18:14:09.580Z,0.20
2022-08-07T18:16:57.434Z,0.20
2022-08-07T18:21:07.958Z,0.20
2022-08-07T18:22:28.607Z,0.20
2022-08-07T18:25:00.943Z,0.10
2022-08-07T18:27:55.041Z,0.10
2022-08-07T18:30:43.408Z,0.20
2022-08-07T18:33:35.446Z,0.20
2022-08-07T18:36:32.752Z,0.20
2022-08-07T18:40:07.165Z,0.20
2022-08-07T18:42:17.523Z,0.23
2022-08-07T18:45:43.559Z,0.10
2022-08-07T18:48:00.830Z,0.20
2022-08-07T18:50:44.062Z,0.20
2022-08-07T18:53:14.684Z,0.10
2022-08-07T18:55:55.876Z,0.10
2022-08-07T18:58:43.284Z,0.20
2022-08-07T19:02:18.017Z,0.13
2022-08-07T19:04:28.106Z,0.30
2022-08-07T19:06:57.396Z,0.20
2022-08-07T19:09:57.350Z,0.10
2022-08-07T19:12:18.846Z,0.25
2022-08-07T19:16:03.178Z,0.10
2022-08-07T19:18:16.777Z,0.10
2022-08-07T19:21:08.932Z,0.20
2022-08-07T19:23:58.308Z,0.20
2022-08-07T19:26:29.208Z,0.20
2022-08-07T19:31:06.120Z,0.20
2022-08-07T19:32:03.517Z,0.20
2022-08-07T19:34:06.251Z,0.20
2022-08-07T19:36:44.600Z,0.15
2022-08-07T19:39:17.141Z,0.10
2022-08-07T19:42:08.543Z,0.20
2022-08-07T19:44:22.470Z,0.20
2022-08-07T19:46:55.633Z,0.20
2022-08-07T19:49:56.507Z,0.20
2022-08-07T19:52:00.638Z,0.10
2022-08-07T19:54:34.343Z,0.10
2022-08-07T19:58:02.924Z,0.10
2022-08-07T19:59:41.182Z,0.20
2022-08-07T20:02:15.314Z,0.20
2022-08-07T20:04:45.190Z,0.20
2022-08-07T20:07:23.776Z,0.20
2022-08-07T20:10:34.130Z,0.10
2022-08-07T20:12:34.547Z,0.33
2022-08-07T20:14:58.336Z,0.20
2022-08-07T20:17:29.064Z,0.20
2022-08-07T20:20:00.669Z,0.20
2022-08-07T20:25:28.612Z,0.30
2022-08-07T20:28:03.553Z,0.23
2022-08-07T20:30:36.970Z,0.20
2022-08-07T20:33:36.557Z,0.20
2022-08-07T20:35:51.962Z,0.30
2022-08-07T20:38:23.315Z,0.20
2022-08-07T20:40:58.504Z,0.30
2022-08-07T20:43:32.367Z,0.20
2022-08-07T20:46:25.922Z,0.30
2022-08-07T20:48:36.670Z,0.20
2022-08-07T20:51:09.725Z,0.20
2022-08-07T20:54:03.729Z,0.20
2022-08-07T20:56:12.809Z,0.20
2022-08-07T20:58:44.235Z,0.15
2022-08-07T21:01:19.742Z,0.17
2022-08-07T21:04:13.121Z,0.13
2022-08-07T21:06:28.501Z,0.20
2022-08-07T21:09:03.460Z,0.20
2022-08-07T21:11:50.295Z,0.20
2022-08-07T21:14:31.667Z,0.10
2022-08-07T21:18:01.125Z,0.20
2022-08-07T21:19:51.357Z,0.20
2022-08-07T21:22:06.937Z,0.10
2022-08-07T21:24:47.978Z,0.20
2022-08-07T21:27:40.044Z,0.20
2022-08-07T21:30:10.404Z,0.17
2022-08-07T21:33:07.162Z,0.20
2022-08-07T21:36:12.000Z,0.20
2022-08-07T21:38:50.055Z,0.20
2022-08-07T21:41:28.307Z,0.20
2022-08-07T21:44:28.303Z,0.10
2022-08-07T21:46:51.781Z,0.13
2022-08-07T21:49:40.818Z,0.10
2022-08-07T21:52:11.622Z,0.10
2022-08-07T21:55:01.252Z,0.20
2022-08-07T21:57:44.411Z,0.20
2022-08-07T22:00:22.396Z,0.20
2022-08-07T22:02:45.588Z,0.20
2022-08-07T22:05:43.946Z,0.20
2022-08-07T22:07:59.496Z,0.10
2022-08-07T22:10:26.272Z,0.10
2022-08-07T22:13:05.705Z,0.10
2022-08-07T22:16:43.510Z,0.10
2022-08-07T22:18:37.407Z,0.20
2022-08-07T22:21:21.262Z,0.17
2022-08-07T22:24:05.909Z,0.13
2022-08-07T22:26:52.515Z,0.10
2022-08-07T22:29:47.450Z,0.20
2022-08-07T22:32:20.526Z,0.10
2022-08-07T22:34:56.066Z,0.20
2022-08-07T22:38:03.255Z,0.10
2022-08-07T22:40:36.983Z,0.10
2022-08-07T22:43:23.424Z,0.10
2022-08-07T22:46:21.812Z,0.20
2022-08-07T22:49:01.436Z,0.20
2022-08-07T22:51:43.895Z,0.20
2022-08-07T22:54:26.916Z,0.17
2022-08-07T22:57:12.674Z,0.20
2022-08-07T22:59:51.991Z,0.20
2022-08-07T23:02:27.638Z,0.28
2022-08-07T23:06:08.625Z,0.20
2022-08-07T23:08:22.173Z,0.17
2022-08-07T23:11:13.244Z,0.10
2022-08-07T23:14:15.540Z,0.20
2022-08-07T23:16:48.349Z,0.20
2022-08-07T23:19:51.446Z,0.20
2022-08-07T23:22:52.334Z,0.10
2022-08-07T23:25:49.600Z,0.20
2022-08-07T23:28:29.129Z,0.30
2022-08-07T23:32:49.567Z,0.20
2022-08-07T23:34:20.215Z,0.10
2022-08-07T23:37:19.964Z,0.20
2022-08-07T23:39:41.155Z,0.20
2022-08-07T23:42:43.490Z,0.20
2022-08-07T23:45:33.413Z,0.20
2022-08-07T23:48:03.027Z,0.20
2022-08-07T23:50:38.765Z,0.10
2022-08-07T23:53:17.271Z,0.10
2022-08-07T23:55:55.877Z,0.20
2022-08-07T23:58:35.660Z,0.27
